Airport View

Enter AWOS ICAO identifier for current METAR.

ex. KFNL

KPDX 080553Z 33004KT 10SM FEW200 19/12 A3013 RMK AO2 SLP200 T01940117 10256 20194 51009

8 Aug 2020 06:45

Phone: 503-284-6771

Other Area AWOS: KVUO - KTTD - KHIO - KSPB

TAF KPDX 080520Z 0806/0906 33007KT P6SM FEW040 SCT200 FM080800 32003KT P6SM BKN050 BKN100 FM081700 30007KT P6SM FEW050 FM082100 31011KT P6SM SCT100 FM090000 32011G20KT P6SM SCT100